sensor_id;sensor_type;location;lat;lon;timestamp;P1;durP1;ratioP1;P2;durP2;ratioP2
37407;SDS011;24866;50.248;8.252;2022-12-18T00:02:20;35.28;;;15.07;;
37407;SDS011;24866;50.248;8.252;2022-12-18T00:04:51;35.03;;;15.68;;
37407;SDS011;24866;50.248;8.252;2022-12-18T00:07:21;37.45;;;15.77;;
37407;SDS011;24866;50.248;8.252;2022-12-18T00:09:51;40.90;;;14.90;;
37407;SDS011;24866;50.248;8.252;2022-12-18T00:12:21;40.67;;;15.82;;
37407;SDS011;24866;50.248;8.252;2022-12-18T00:14:51;40.15;;;17.08;;
37407;SDS011;24866;50.248;8.252;2022-12-18T00:17:21;38.22;;;15.43;;
37407;SDS011;24866;50.248;8.252;2022-12-18T00:19:52;41.50;;;15.45;;
37407;SDS011;24866;50.248;8.252;2022-12-18T00:22:22;45.72;;;16.65;;
37407;SDS011;24866;50.248;8.252;2022-12-18T00:24:52;49.13;;;18.08;;
37407;SDS011;24866;50.248;8.252;2022-12-18T00:27:22;47.88;;;19.92;;
37407;SDS011;24866;50.248;8.252;2022-12-18T00:29:52;44.95;;;18.27;;
37407;SDS011;24866;50.248;8.252;2022-12-18T00:32:22;63.25;;;18.25;;
37407;SDS011;24866;50.248;8.252;2022-12-18T00:34:54;38.00;;;15.90;;
37407;SDS011;24866;50.248;8.252;2022-12-18T00:37:23;48.20;;;17.20;;
37407;SDS011;24866;50.248;8.252;2022-12-18T00:39:53;43.03;;;16.75;;
37407;SDS011;24866;50.248;8.252;2022-12-18T00:42:23;49.10;;;17.60;;
37407;SDS011;24866;50.248;8.252;2022-12-18T00:45:10;47.08;;;16.40;;
37407;SDS011;24866;50.248;8.252;2022-12-18T00:47:40;42.40;;;15.85;;
37407;SDS011;24866;50.248;8.252;2022-12-18T00:50:12;50.65;;;16.95;;
37407;SDS011;24866;50.248;8.252;2022-12-18T00:52:41;49.47;;;17.77;;
37407;SDS011;24866;50.248;8.252;2022-12-18T00:55:12;48.63;;;18.52;;
37407;SDS011;24866;50.248;8.252;2022-12-18T00:57:43;52.97;;;16.83;;
37407;SDS011;24866;50.248;8.252;2022-12-18T01:00:14;45.22;;;18.38;;
37407;SDS011;24866;50.248;8.252;2022-12-18T01:02:45;40.55;;;15.88;;
37407;SDS011;24866;50.248;8.252;2022-12-18T01:05:20;48.05;;;18.58;;
37407;SDS011;24866;50.248;8.252;2022-12-18T01:07:50;43.17;;;15.90;;
37407;SDS011;24866;50.248;8.252;2022-12-18T01:10:20;39.63;;;15.90;;
37407;SDS011;24866;50.248;8.252;2022-12-18T01:12:50;42.97;;;17.45;;
37407;SDS011;24866;50.248;8.252;2022-12-18T01:15:20;38.97;;;15.95;;
37407;SDS011;24866;50.248;8.252;2022-12-18T01:17:51;39.72;;;15.60;;
37407;SDS011;24866;50.248;8.252;2022-12-18T01:20:23;41.75;;;15.05;;
37407;SDS011;24866;50.248;8.252;2022-12-18T01:22:53;46.77;;;15.80;;
37407;SDS011;24866;50.248;8.252;2022-12-18T01:25:23;38.22;;;14.88;;
37407;SDS011;24866;50.248;8.252;2022-12-18T01:27:53;42.17;;;14.93;;
37407;SDS011;24866;50.248;8.252;2022-12-18T01:30:23;39.05;;;16.23;;
37407;SDS011;24866;50.248;8.252;2022-12-18T01:32:53;37.97;;;15.68;;
37407;SDS011;24866;50.248;8.252;2022-12-18T01:35:24;33.88;;;14.30;;
37407;SDS011;24866;50.248;8.252;2022-12-18T01:37:54;33.57;;;14.70;;
37407;SDS011;24866;50.248;8.252;2022-12-18T01:40:24;55.22;;;17.00;;
37407;SDS011;24866;50.248;8.252;2022-12-18T01:42:54;40.53;;;15.00;;
37407;SDS011;24866;50.248;8.252;2022-12-18T01:45:25;35.63;;;15.18;;
37407;SDS011;24866;50.248;8.252;2022-12-18T01:47:57;40.20;;;15.02;;
37407;SDS011;24866;50.248;8.252;2022-12-18T01:50:32;32.33;;;13.70;;
37407;SDS011;24866;50.248;8.252;2022-12-18T01:53:05;32.03;;;14.02;;
37407;SDS011;24866;50.248;8.252;2022-12-18T01:55:39;35.47;;;14.68;;
37407;SDS011;24866;50.248;8.252;2022-12-18T01:58:12;32.50;;;14.10;;
37407;SDS011;24866;50.248;8.252;2022-12-18T02:00:42;30.75;;;13.93;;
37407;SDS011;24866;50.248;8.252;2022-12-18T02:03:12;36.78;;;15.68;;
37407;SDS011;24866;50.248;8.252;2022-12-18T02:05:45;39.28;;;15.70;;
37407;SDS011;24866;50.248;8.252;2022-12-18T02:08:19;40.03;;;14.65;;
37407;SDS011;24866;50.248;8.252;2022-12-18T02:10:53;27.50;;;13.50;;
37407;SDS011;24866;50.248;8.252;2022-12-18T02:13:30;34.80;;;15.38;;
37407;SDS011;24866;50.248;8.252;2022-12-18T02:16:06;34.28;;;13.25;;
37407;SDS011;24866;50.248;8.252;2022-12-18T02:18:43;36.10;;;14.88;;
37407;SDS011;24866;50.248;8.252;2022-12-18T02:21:20;36.67;;;13.15;;
37407;SDS011;24866;50.248;8.252;2022-12-18T02:24:02;40.17;;;14.23;;
37407;SDS011;24866;50.248;8.252;2022-12-18T02:26:44;33.67;;;14.40;;
37407;SDS011;24866;50.248;8.252;2022-12-18T02:29:20;34.58;;;14.32;;
37407;SDS011;24866;50.248;8.252;2022-12-18T02:31:52;36.75;;;15.73;;
37407;SDS011;24866;50.248;8.252;2022-12-18T02:34:26;39.08;;;15.13;;
37407;SDS011;24866;50.248;8.252;2022-12-18T02:37:00;29.60;;;13.68;;
37407;SDS011;24866;50.248;8.252;2022-12-18T02:39:36;25.38;;;11.90;;
37407;SDS011;24866;50.248;8.252;2022-12-18T02:42:10;26.10;;;11.45;;
37407;SDS011;24866;50.248;8.252;2022-12-18T02:44:44;30.27;;;11.95;;
37407;SDS011;24866;50.248;8.252;2022-12-18T02:47:16;20.50;;;10.77;;
37407;SDS011;24866;50.248;8.252;2022-12-18T02:49:51;22.60;;;9.68;;
37407;SDS011;24866;50.248;8.252;2022-12-18T02:52:28;30.88;;;11.98;;
37407;SDS011;24866;50.248;8.252;2022-12-18T02:55:05;26.30;;;11.20;;
37407;SDS011;24866;50.248;8.252;2022-12-18T02:57:48;23.10;;;9.95;;
37407;SDS011;24866;50.248;8.252;2022-12-18T03:00:21;24.30;;;10.15;;
37407;SDS011;24866;50.248;8.252;2022-12-18T03:02:59;26.38;;;10.65;;
37407;SDS011;24866;50.248;8.252;2022-12-18T03:05:36;21.60;;;8.65;;
37407;SDS011;24866;50.248;8.252;2022-12-18T03:08:10;24.17;;;9.38;;
37407;SDS011;24866;50.248;8.252;2022-12-18T03:10:45;23.40;;;10.07;;
37407;SDS011;24866;50.248;8.252;2022-12-18T03:13:22;26.73;;;10.10;;
37407;SDS011;24866;50.248;8.252;2022-12-18T03:15:59;20.23;;;9.60;;
37407;SDS011;24866;50.248;8.252;2022-12-18T03:18:32;27.48;;;10.43;;
37407;SDS011;24866;50.248;8.252;2022-12-18T03:21:07;27.70;;;11.70;;
37407;SDS011;24866;50.248;8.252;2022-12-18T03:23:40;37.38;;;13.73;;
37407;SDS011;24866;50.248;8.252;2022-12-18T03:26:14;39.90;;;14.40;;
37407;SDS011;24866;50.248;8.252;2022-12-18T03:28:49;35.92;;;14.07;;
37407;SDS011;24866;50.248;8.252;2022-12-18T03:31:22;34.13;;;13.77;;
37407;SDS011;24866;50.248;8.252;2022-12-18T03:33:56;37.95;;;16.38;;
37407;SDS011;24866;50.248;8.252;2022-12-18T03:36:29;41.13;;;15.93;;
37407;SDS011;24866;50.248;8.252;2022-12-18T03:38:59;42.63;;;15.68;;
37407;SDS011;24866;50.248;8.252;2022-12-18T03:41:29;43.38;;;16.52;;
37407;SDS011;24866;50.248;8.252;2022-12-18T03:44:05;38.60;;;15.05;;
37407;SDS011;24866;50.248;8.252;2022-12-18T03:46:43;33.55;;;14.05;;
37407;SDS011;24866;50.248;8.252;2022-12-18T03:49:18;35.13;;;15.07;;
37407;SDS011;24866;50.248;8.252;2022-12-18T03:51:57;38.60;;;14.65;;
37407;SDS011;24866;50.248;8.252;2022-12-18T03:54:31;38.75;;;13.95;;
37407;SDS011;24866;50.248;8.252;2022-12-18T03:57:03;33.45;;;14.55;;
37407;SDS011;24866;50.248;8.252;2022-12-18T03:59:37;33.88;;;13.45;;
37407;SDS011;24866;50.248;8.252;2022-12-18T04:02:09;34.60;;;14.15;;
37407;SDS011;24866;50.248;8.252;2022-12-18T04:04:39;27.65;;;13.88;;
37407;SDS011;24866;50.248;8.252;2022-12-18T04:07:11;29.73;;;13.18;;
37407;SDS011;24866;50.248;8.252;2022-12-18T04:09:42;33.57;;;13.57;;
37407;SDS011;24866;50.248;8.252;2022-12-18T04:12:13;31.73;;;13.20;;
37407;SDS011;24866;50.248;8.252;2022-12-18T04:14:45;23.77;;;10.52;;
37407;SDS011;24866;50.248;8.252;2022-12-18T04:17:14;25.07;;;10.63;;
37407;SDS011;24866;50.248;8.252;2022-12-18T04:19:44;25.83;;;11.27;;
37407;SDS011;24866;50.248;8.252;2022-12-18T04:22:14;22.92;;;11.52;;
37407;SDS011;24866;50.248;8.252;2022-12-18T04:24:44;23.20;;;9.93;;
37407;SDS011;24866;50.248;8.252;2022-12-18T04:27:14;23.30;;;9.93;;
37407;SDS011;24866;50.248;8.252;2022-12-18T04:29:45;26.88;;;10.82;;
37407;SDS011;24866;50.248;8.252;2022-12-18T04:32:15;23.50;;;9.23;;
37407;SDS011;24866;50.248;8.252;2022-12-18T04:34:45;21.98;;;9.63;;
37407;SDS011;24866;50.248;8.252;2022-12-18T04:37:15;24.95;;;10.30;;
37407;SDS011;24866;50.248;8.252;2022-12-18T04:39:45;22.13;;;10.98;;
37407;SDS011;24866;50.248;8.252;2022-12-18T04:42:14;24.88;;;10.20;;
37407;SDS011;24866;50.248;8.252;2022-12-18T04:44:46;21.90;;;10.60;;
37407;SDS011;24866;50.248;8.252;2022-12-18T04:47:16;23.33;;;10.45;;
37407;SDS011;24866;50.248;8.252;2022-12-18T04:49:45;28.90;;;10.82;;
37407;SDS011;24866;50.248;8.252;2022-12-18T04:52:15;27.05;;;10.23;;
37407;SDS011;24866;50.248;8.252;2022-12-18T04:54:45;24.52;;;9.27;;
37407;SDS011;24866;50.248;8.252;2022-12-18T04:57:15;26.60;;;11.38;;
37407;SDS011;24866;50.248;8.252;2022-12-18T04:59:47;23.63;;;10.57;;
37407;SDS011;24866;50.248;8.252;2022-12-18T05:02:17;21.75;;;10.02;;
37407;SDS011;24866;50.248;8.252;2022-12-18T05:04:47;25.98;;;9.23;;
37407;SDS011;24866;50.248;8.252;2022-12-18T05:07:17;28.98;;;9.60;;
37407;SDS011;24866;50.248;8.252;2022-12-18T05:09:47;24.58;;;9.90;;
37407;SDS011;24866;50.248;8.252;2022-12-18T05:12:17;27.58;;;10.50;;
37407;SDS011;24866;50.248;8.252;2022-12-18T05:14:48;26.45;;;9.90;;
37407;SDS011;24866;50.248;8.252;2022-12-18T05:17:18;22.53;;;9.47;;
37407;SDS011;24866;50.248;8.252;2022-12-18T05:19:47;22.98;;;9.63;;
37407;SDS011;24866;50.248;8.252;2022-12-18T05:22:17;23.90;;;10.00;;
37407;SDS011;24866;50.248;8.252;2022-12-18T05:24:47;26.20;;;9.77;;
37407;SDS011;24866;50.248;8.252;2022-12-18T05:27:17;24.20;;;9.68;;
37407;SDS011;24866;50.248;8.252;2022-12-18T05:29:50;22.00;;;8.87;;
37407;SDS011;24866;50.248;8.252;2022-12-18T05:32:19;24.10;;;9.95;;
37407;SDS011;24866;50.248;8.252;2022-12-18T05:34:49;23.52;;;9.00;;
37407;SDS011;24866;50.248;8.252;2022-12-18T05:37:19;19.88;;;8.98;;
37407;SDS011;24866;50.248;8.252;2022-12-18T05:39:49;23.63;;;9.25;;
37407;SDS011;24866;50.248;8.252;2022-12-18T05:42:19;22.45;;;9.90;;
37407;SDS011;24866;50.248;8.252;2022-12-18T05:44:50;26.73;;;10.80;;
37407;SDS011;24866;50.248;8.252;2022-12-18T05:47:20;23.30;;;10.10;;
37407;SDS011;24866;50.248;8.252;2022-12-18T05:49:50;26.48;;;10.93;;
37407;SDS011;24866;50.248;8.252;2022-12-18T05:52:20;26.55;;;10.45;;
37407;SDS011;24866;50.248;8.252;2022-12-18T05:54:50;21.42;;;8.73;;
37407;SDS011;24866;50.248;8.252;2022-12-18T05:57:20;29.30;;;10.90;;
37407;SDS011;24866;50.248;8.252;2022-12-18T05:59:51;27.38;;;10.80;;
37407;SDS011;24866;50.248;8.252;2022-12-18T06:02:21;26.52;;;10.40;;
37407;SDS011;24866;50.248;8.252;2022-12-18T06:04:51;26.75;;;9.95;;
37407;SDS011;24866;50.248;8.252;2022-12-18T06:07:20;28.42;;;10.02;;
37407;SDS011;24866;50.248;8.252;2022-12-18T06:09:50;24.70;;;10.35;;
37407;SDS011;24866;50.248;8.252;2022-12-18T06:12:20;26.58;;;10.48;;
37407;SDS011;24866;50.248;8.252;2022-12-18T06:14:51;26.02;;;10.80;;
37407;SDS011;24866;50.248;8.252;2022-12-18T06:17:21;32.43;;;12.17;;
37407;SDS011;24866;50.248;8.252;2022-12-18T06:19:51;25.90;;;11.05;;
37407;SDS011;24866;50.248;8.252;2022-12-18T06:22:21;29.35;;;11.88;;
37407;SDS011;24866;50.248;8.252;2022-12-18T06:24:51;28.23;;;11.85;;
37407;SDS011;24866;50.248;8.252;2022-12-18T06:27:21;28.05;;;11.77;;
37407;SDS011;24866;50.248;8.252;2022-12-18T06:29:52;28.15;;;11.63;;
37407;SDS011;24866;50.248;8.252;2022-12-18T06:32:22;24.90;;;10.30;;
37407;SDS011;24866;50.248;8.252;2022-12-18T06:34:52;27.38;;;12.00;;
37407;SDS011;24866;50.248;8.252;2022-12-18T06:37:23;30.00;;;11.07;;
37407;SDS011;24866;50.248;8.252;2022-12-18T06:39:54;24.55;;;11.23;;
37407;SDS011;24866;50.248;8.252;2022-12-18T06:42:24;29.23;;;10.55;;
37407;SDS011;24866;50.248;8.252;2022-12-18T06:44:55;27.75;;;9.82;;
37407;SDS011;24866;50.248;8.252;2022-12-18T06:47:25;28.15;;;11.18;;
37407;SDS011;24866;50.248;8.252;2022-12-18T06:49:55;27.63;;;11.20;;
37407;SDS011;24866;50.248;8.252;2022-12-18T06:52:25;26.20;;;10.95;;
37407;SDS011;24866;50.248;8.252;2022-12-18T06:54:55;24.63;;;10.35;;
37407;SDS011;24866;50.248;8.252;2022-12-18T06:57:25;27.35;;;11.20;;
37407;SDS011;24866;50.248;8.252;2022-12-18T06:59:56;28.60;;;11.23;;
37407;SDS011;24866;50.248;8.252;2022-12-18T07:02:27;25.13;;;10.50;;
37407;SDS011;24866;50.248;8.252;2022-12-18T07:04:56;29.52;;;12.35;;
37407;SDS011;24866;50.248;8.252;2022-12-18T07:07:26;20.90;;;9.50;;
37407;SDS011;24866;50.248;8.252;2022-12-18T07:09:56;27.67;;;10.75;;
37407;SDS011;24866;50.248;8.252;2022-12-18T07:12:26;24.25;;;9.93;;
37407;SDS011;24866;50.248;8.252;2022-12-18T07:14:57;26.70;;;11.10;;
37407;SDS011;24866;50.248;8.252;2022-12-18T07:17:27;26.75;;;10.65;;
37407;SDS011;24866;50.248;8.252;2022-12-18T07:19:58;32.47;;;12.55;;
37407;SDS011;24866;50.248;8.252;2022-12-18T07:22:27;28.52;;;11.90;;
37407;SDS011;24866;50.248;8.252;2022-12-18T07:24:57;28.35;;;11.68;;
37407;SDS011;24866;50.248;8.252;2022-12-18T07:27:27;28.63;;;11.07;;
37407;SDS011;24866;50.248;8.252;2022-12-18T07:29:59;25.20;;;10.65;;
37407;SDS011;24866;50.248;8.252;2022-12-18T07:32:29;22.83;;;10.05;;
37407;SDS011;24866;50.248;8.252;2022-12-18T07:35:00;23.67;;;9.43;;
37407;SDS011;24866;50.248;8.252;2022-12-18T07:37:30;25.83;;;11.00;;
37407;SDS011;24866;50.248;8.252;2022-12-18T07:39:59;28.13;;;11.65;;
37407;SDS011;24866;50.248;8.252;2022-12-18T07:42:29;28.27;;;12.00;;
37407;SDS011;24866;50.248;8.252;2022-12-18T07:45:01;29.95;;;12.55;;
37407;SDS011;24866;50.248;8.252;2022-12-18T07:47:33;21.80;;;10.18;;
37407;SDS011;24866;50.248;8.252;2022-12-18T07:50:04;26.50;;;11.52;;
37407;SDS011;24866;50.248;8.252;2022-12-18T07:52:35;27.50;;;11.02;;
37407;SDS011;24866;50.248;8.252;2022-12-18T07:55:05;30.98;;;10.80;;
37407;SDS011;24866;50.248;8.252;2022-12-18T07:57:36;27.35;;;10.40;;
37407;SDS011;24866;50.248;8.252;2022-12-18T08:00:07;30.15;;;11.52;;
37407;SDS011;24866;50.248;8.252;2022-12-18T08:02:38;30.00;;;11.57;;
37407;SDS011;24866;50.248;8.252;2022-12-18T08:05:08;27.55;;;10.55;;
37407;SDS011;24866;50.248;8.252;2022-12-18T08:07:38;27.73;;;10.07;;
37407;SDS011;24866;50.248;8.252;2022-12-18T08:10:09;29.60;;;11.85;;
37407;SDS011;24866;50.248;8.252;2022-12-18T08:12:38;26.55;;;12.93;;
37407;SDS011;24866;50.248;8.252;2022-12-18T08:15:10;37.40;;;15.98;;
37407;SDS011;24866;50.248;8.252;2022-12-18T08:17:40;41.72;;;17.15;;
37407;SDS011;24866;50.248;8.252;2022-12-18T08:20:10;44.95;;;18.85;;
37407;SDS011;24866;50.248;8.252;2022-12-18T08:22:42;46.55;;;20.10;;
37407;SDS011;24866;50.248;8.252;2022-12-18T08:25:11;51.28;;;20.27;;
37407;SDS011;24866;50.248;8.252;2022-12-18T08:27:41;43.58;;;19.70;;
37407;SDS011;24866;50.248;8.252;2022-12-18T08:30:13;42.75;;;20.67;;
37407;SDS011;24866;50.248;8.252;2022-12-18T08:32:43;49.97;;;23.15;;
37407;SDS011;24866;50.248;8.252;2022-12-18T08:35:13;40.95;;;19.25;;
37407;SDS011;24866;50.248;8.252;2022-12-18T08:37:43;37.83;;;17.02;;
37407;SDS011;24866;50.248;8.252;2022-12-18T08:40:13;33.90;;;15.57;;
37407;SDS011;24866;50.248;8.252;2022-12-18T08:42:43;34.13;;;15.15;;
37407;SDS011;24866;50.248;8.252;2022-12-18T08:45:32;30.52;;;12.73;;
37407;SDS011;24866;50.248;8.252;2022-12-18T08:48:03;32.90;;;12.98;;
37407;SDS011;24866;50.248;8.252;2022-12-18T08:50:33;30.73;;;14.18;;
37407;SDS011;24866;50.248;8.252;2022-12-18T08:53:04;37.03;;;16.83;;
37407;SDS011;24866;50.248;8.252;2022-12-18T08:55:34;36.55;;;14.50;;
37407;SDS011;24866;50.248;8.252;2022-12-18T08:58:04;38.65;;;17.05;;
37407;SDS011;24866;50.248;8.252;2022-12-18T09:00:36;37.03;;;17.05;;
37407;SDS011;24866;50.248;8.252;2022-12-18T09:05:40;30.63;;;13.73;;
37407;SDS011;24866;50.248;8.252;2022-12-18T09:08:11;34.67;;;14.25;;
37407;SDS011;24866;50.248;8.252;2022-12-18T09:10:42;34.50;;;15.63;;
37407;SDS011;24866;50.248;8.252;2022-12-18T09:13:15;32.63;;;14.07;;
37407;SDS011;24866;50.248;8.252;2022-12-18T09:15:48;29.08;;;12.43;;
37407;SDS011;24866;50.248;8.252;2022-12-18T09:18:20;32.08;;;15.23;;
37407;SDS011;24866;50.248;8.252;2022-12-18T09:20:51;43.10;;;19.50;;
37407;SDS011;24866;50.248;8.252;2022-12-18T09:23:21;43.33;;;18.48;;
37407;SDS011;24866;50.248;8.252;2022-12-18T09:25:52;53.72;;;21.40;;
37407;SDS011;24866;50.248;8.252;2022-12-18T09:28:28;54.35;;;24.05;;
37407;SDS011;24866;50.248;8.252;2022-12-18T09:31:03;34.78;;;16.90;;
37407;SDS011;24866;50.248;8.252;2022-12-18T09:33:34;29.98;;;15.20;;
37407;SDS011;24866;50.248;8.252;2022-12-18T09:36:05;31.58;;;14.75;;
37407;SDS011;24866;50.248;8.252;2022-12-18T09:38:36;32.67;;;16.02;;
37407;SDS011;24866;50.248;8.252;2022-12-18T09:41:13;28.05;;;14.02;;
37407;SDS011;24866;50.248;8.252;2022-12-18T09:43:53;38.25;;;16.95;;
37407;SDS011;24866;50.248;8.252;2022-12-18T09:46:30;30.02;;;14.57;;
37407;SDS011;24866;50.248;8.252;2022-12-18T09:49:02;25.38;;;11.55;;
37407;SDS011;24866;50.248;8.252;2022-12-18T09:51:37;30.42;;;15.77;;
37407;SDS011;24866;50.248;8.252;2022-12-18T09:54:14;29.42;;;13.00;;
37407;SDS011;24866;50.248;8.252;2022-12-18T09:56:49;26.30;;;13.38;;
37407;SDS011;24866;50.248;8.252;2022-12-18T09:59:23;32.67;;;15.20;;
37407;SDS011;24866;50.248;8.252;2022-12-18T10:01:57;29.50;;;14.27;;
37407;SDS011;24866;50.248;8.252;2022-12-18T10:04:29;32.58;;;14.20;;
37407;SDS011;24866;50.248;8.252;2022-12-18T10:07:02;29.70;;;13.23;;
37407;SDS011;24866;50.248;8.252;2022-12-18T10:09:40;29.70;;;13.88;;
37407;SDS011;24866;50.248;8.252;2022-12-18T10:12:20;30.30;;;13.85;;
37407;SDS011;24866;50.248;8.252;2022-12-18T10:14:57;29.83;;;13.73;;
37407;SDS011;24866;50.248;8.252;2022-12-18T10:17:37;32.85;;;15.35;;
37407;SDS011;24866;50.248;8.252;2022-12-18T10:20:16;29.52;;;14.88;;
37407;SDS011;24866;50.248;8.252;2022-12-18T10:22:51;25.38;;;12.07;;
37407;SDS011;24866;50.248;8.252;2022-12-18T10:25:28;27.48;;;15.15;;
37407;SDS011;24866;50.248;8.252;2022-12-18T10:28:07;25.52;;;13.00;;
37407;SDS011;24866;50.248;8.252;2022-12-18T10:30:42;27.70;;;13.55;;
37407;SDS011;24866;50.248;8.252;2022-12-18T10:33:15;27.27;;;13.67;;
37407;SDS011;24866;50.248;8.252;2022-12-18T10:35:49;28.85;;;14.65;;
37407;SDS011;24866;50.248;8.252;2022-12-18T10:38:21;26.17;;;13.43;;
37407;SDS011;24866;50.248;8.252;2022-12-18T10:40:54;29.35;;;14.77;;
37407;SDS011;24866;50.248;8.252;2022-12-18T10:43:27;30.05;;;14.20;;
37407;SDS011;24866;50.248;8.252;2022-12-18T10:45:59;29.00;;;13.20;;
37407;SDS011;24866;50.248;8.252;2022-12-18T10:48:33;29.60;;;15.18;;
37407;SDS011;24866;50.248;8.252;2022-12-18T10:51:05;29.23;;;14.68;;
37407;SDS011;24866;50.248;8.252;2022-12-18T10:53:36;34.13;;;17.15;;
37407;SDS011;24866;50.248;8.252;2022-12-18T10:56:07;32.58;;;15.65;;
37407;SDS011;24866;50.248;8.252;2022-12-18T10:58:37;36.00;;;18.20;;
37407;SDS011;24866;50.248;8.252;2022-12-18T11:01:09;36.50;;;15.48;;
37407;SDS011;24866;50.248;8.252;2022-12-18T11:03:42;34.42;;;17.88;;
37407;SDS011;24866;50.248;8.252;2022-12-18T11:06:15;44.20;;;18.45;;
37407;SDS011;24866;50.248;8.252;2022-12-18T11:08:56;37.55;;;16.70;;
37407;SDS011;24866;50.248;8.252;2022-12-18T11:11:28;29.58;;;14.93;;
37407;SDS011;24866;50.248;8.252;2022-12-18T11:14:01;33.15;;;16.83;;
37407;SDS011;24866;50.248;8.252;2022-12-18T11:16:33;35.58;;;15.50;;
37407;SDS011;24866;50.248;8.252;2022-12-18T11:21:42;32.92;;;14.05;;
37407;SDS011;24866;50.248;8.252;2022-12-18T11:24:18;29.00;;;15.20;;
37407;SDS011;24866;50.248;8.252;2022-12-18T11:26:51;38.22;;;14.60;;
37407;SDS011;24866;50.248;8.252;2022-12-18T11:29:23;31.88;;;18.48;;
37407;SDS011;24866;50.248;8.252;2022-12-18T11:35:01;32.38;;;15.90;;
37407;SDS011;24866;50.248;8.252;2022-12-18T11:37:43;28.75;;;14.25;;
37407;SDS011;24866;50.248;8.252;2022-12-18T11:40:17;31.70;;;16.08;;
37407;SDS011;24866;50.248;8.252;2022-12-18T11:42:51;33.38;;;16.83;;
37407;SDS011;24866;50.248;8.252;2022-12-18T11:45:27;35.72;;;18.42;;
37407;SDS011;24866;50.248;8.252;2022-12-18T11:48:01;35.70;;;18.05;;
37407;SDS011;24866;50.248;8.252;2022-12-18T11:50:41;36.15;;;17.13;;
37407;SDS011;24866;50.248;8.252;2022-12-18T11:53:18;35.60;;;17.27;;
37407;SDS011;24866;50.248;8.252;2022-12-18T11:55:52;36.20;;;18.98;;
37407;SDS011;24866;50.248;8.252;2022-12-18T11:58:37;32.20;;;15.73;;
37407;SDS011;24866;50.248;8.252;2022-12-18T12:01:18;33.78;;;16.70;;
37407;SDS011;24866;50.248;8.252;2022-12-18T12:04:08;39.47;;;19.00;;
37407;SDS011;24866;50.248;8.252;2022-12-18T12:07:04;35.30;;;18.08;;
37407;SDS011;24866;50.248;8.252;2022-12-18T12:09:45;38.75;;;19.25;;
37407;SDS011;24866;50.248;8.252;2022-12-18T12:12:28;39.28;;;19.50;;
37407;SDS011;24866;50.248;8.252;2022-12-18T12:15:16;41.53;;;21.00;;
37407;SDS011;24866;50.248;8.252;2022-12-18T12:17:55;41.75;;;19.80;;
37407;SDS011;24866;50.248;8.252;2022-12-18T12:20:39;42.03;;;20.03;;
37407;SDS011;24866;50.248;8.252;2022-12-18T12:23:22;41.10;;;19.52;;
37407;SDS011;24866;50.248;8.252;2022-12-18T12:26:01;47.45;;;20.13;;
37407;SDS011;24866;50.248;8.252;2022-12-18T12:28:48;36.03;;;18.10;;
37407;SDS011;24866;50.248;8.252;2022-12-18T12:31:39;39.88;;;18.25;;
37407;SDS011;24866;50.248;8.252;2022-12-18T12:34:19;40.85;;;20.75;;
37407;SDS011;24866;50.248;8.252;2022-12-18T12:36:59;38.47;;;18.58;;
37407;SDS011;24866;50.248;8.252;2022-12-18T12:39:40;40.55;;;18.85;;
37407;SDS011;24866;50.248;8.252;2022-12-18T12:42:21;49.92;;;21.35;;
37407;SDS011;24866;50.248;8.252;2022-12-18T12:45:17;45.20;;;19.13;;
37407;SDS011;24866;50.248;8.252;2022-12-18T12:47:51;47.55;;;22.85;;
37407;SDS011;24866;50.248;8.252;2022-12-18T12:50:23;44.85;;;20.73;;
37407;SDS011;24866;50.248;8.252;2022-12-18T12:52:55;41.83;;;19.55;;
37407;SDS011;24866;50.248;8.252;2022-12-18T12:55:28;37.75;;;19.05;;
37407;SDS011;24866;50.248;8.252;2022-12-18T12:58:02;49.25;;;21.77;;
37407;SDS011;24866;50.248;8.252;2022-12-18T13:00:40;41.13;;;18.38;;
37407;SDS011;24866;50.248;8.252;2022-12-18T13:03:23;43.88;;;19.90;;
37407;SDS011;24866;50.248;8.252;2022-12-18T13:06:04;47.38;;;22.42;;
37407;SDS011;24866;50.248;8.252;2022-12-18T13:08:52;46.53;;;20.83;;
37407;SDS011;24866;50.248;8.252;2022-12-18T13:11:34;44.70;;;19.63;;
37407;SDS011;24866;50.248;8.252;2022-12-18T13:14:24;48.92;;;19.23;;
37407;SDS011;24866;50.248;8.252;2022-12-18T13:20:06;50.60;;;20.83;;
37407;SDS011;24866;50.248;8.252;2022-12-18T13:22:41;50.28;;;22.20;;
37407;SDS011;24866;50.248;8.252;2022-12-18T13:25:27;47.53;;;20.73;;
37407;SDS011;24866;50.248;8.252;2022-12-18T13:28:07;46.22;;;23.27;;
37407;SDS011;24866;50.248;8.252;2022-12-18T13:30:50;43.80;;;20.20;;
37407;SDS011;24866;50.248;8.252;2022-12-18T13:33:38;44.17;;;19.15;;
37407;SDS011;24866;50.248;8.252;2022-12-18T13:36:14;45.97;;;20.58;;
37407;SDS011;24866;50.248;8.252;2022-12-18T13:39:09;50.67;;;21.55;;
37407;SDS011;24866;50.248;8.252;2022-12-18T13:42:31;49.15;;;21.60;;
37407;SDS011;24866;50.248;8.252;2022-12-18T13:45:37;51.05;;;21.52;;
37407;SDS011;24866;50.248;8.252;2022-12-18T13:50:58;52.83;;;23.27;;
37407;SDS011;24866;50.248;8.252;2022-12-18T13:53:33;53.05;;;21.75;;
37407;SDS011;24866;50.248;8.252;2022-12-18T13:56:06;45.75;;;20.60;;
37407;SDS011;24866;50.248;8.252;2022-12-18T13:58:37;58.30;;;20.80;;
37407;SDS011;24866;50.248;8.252;2022-12-18T14:01:17;48.30;;;19.88;;
37407;SDS011;24866;50.248;8.252;2022-12-18T14:06:40;54.10;;;21.63;;
37407;SDS011;24866;50.248;8.252;2022-12-18T14:09:15;65.72;;;26.08;;
37407;SDS011;24866;50.248;8.252;2022-12-18T14:14:17;54.70;;;21.60;;
37407;SDS011;24866;50.248;8.252;2022-12-18T14:16:50;59.92;;;24.75;;
37407;SDS011;24866;50.248;8.252;2022-12-18T14:19:20;56.13;;;22.27;;
37407;SDS011;24866;50.248;8.252;2022-12-18T14:21:51;59.50;;;23.42;;
37407;SDS011;24866;50.248;8.252;2022-12-18T14:24:21;59.83;;;23.88;;
37407;SDS011;24866;50.248;8.252;2022-12-18T14:26:52;59.63;;;25.83;;
37407;SDS011;24866;50.248;8.252;2022-12-18T14:29:23;51.90;;;22.60;;
37407;SDS011;24866;50.248;8.252;2022-12-18T14:34:45;58.05;;;24.15;;
37407;SDS011;24866;50.248;8.252;2022-12-18T14:37:17;60.30;;;24.63;;
37407;SDS011;24866;50.248;8.252;2022-12-18T14:39:57;57.97;;;22.80;;
37407;SDS011;24866;50.248;8.252;2022-12-18T14:42:36;56.10;;;24.27;;
37407;SDS011;24866;50.248;8.252;2022-12-18T14:48:07;61.30;;;23.52;;
37407;SDS011;24866;50.248;8.252;2022-12-18T14:50:42;57.10;;;24.17;;
37407;SDS011;24866;50.248;8.252;2022-12-18T14:53:19;55.42;;;23.42;;
37407;SDS011;24866;50.248;8.252;2022-12-18T14:55:51;51.60;;;23.02;;
37407;SDS011;24866;50.248;8.252;2022-12-18T14:58:21;59.83;;;25.35;;
37407;SDS011;24866;50.248;8.252;2022-12-18T15:00:51;51.28;;;21.52;;
37407;SDS011;24866;50.248;8.252;2022-12-18T15:03:23;56.58;;;21.60;;
37407;SDS011;24866;50.248;8.252;2022-12-18T15:05:54;52.00;;;21.33;;
37407;SDS011;24866;50.248;8.252;2022-12-18T15:08:27;52.72;;;23.15;;
37407;SDS011;24866;50.248;8.252;2022-12-18T15:13:57;56.85;;;22.48;;
37407;SDS011;24866;50.248;8.252;2022-12-18T15:16:28;49.95;;;21.63;;
37407;SDS011;24866;50.248;8.252;2022-12-18T15:19:00;56.75;;;24.65;;
37407;SDS011;24866;50.248;8.252;2022-12-18T15:21:30;55.42;;;25.23;;
37407;SDS011;24866;50.248;8.252;2022-12-18T15:24:00;49.00;;;20.48;;
37407;SDS011;24866;50.248;8.252;2022-12-18T15:26:31;48.05;;;22.83;;
37407;SDS011;24866;50.248;8.252;2022-12-18T15:29:15;54.63;;;22.23;;